sensor_id;sensor_type;location;lat;lon;timestamp;pressure;altitude;pressure_sealevel;temperature;humidity
38852;BME280;24605;50.092;9.182;2023-05-23T00:01:00;97700.19;;;15.87;100.00
38852;BME280;24605;50.092;9.182;2023-05-23T00:03:26;97695.88;;;15.93;100.00
38852;BME280;24605;50.092;9.182;2023-05-23T00:05:55;97696.94;;;15.85;100.00
38852;BME280;24605;50.092;9.182;2023-05-23T00:08:22;97694.28;;;15.85;100.00
38852;BME280;24605;50.092;9.182;2023-05-23T00:10:49;97693.88;;;15.81;100.00
38852;BME280;24605;50.092;9.182;2023-05-23T00:13:17;97699.38;;;15.87;100.00
38852;BME280;24605;50.092;9.182;2023-05-23T00:15:44;97697.75;;;15.86;100.00
38852;BME280;24605;50.092;9.182;2023-05-23T00:18:10;97706.47;;;15.79;100.00
38852;BME280;24605;50.092;9.182;2023-05-23T00:20:37;97700.22;;;15.67;100.00
38852;BME280;24605;50.092;9.182;2023-05-23T00:23:05;97709.94;;;15.80;100.00
38852;BME280;24605;50.092;9.182;2023-05-23T00:25:32;97709.09;;;15.79;100.00
38852;BME280;24605;50.092;9.182;2023-05-23T00:28:00;97711.97;;;15.71;100.00
38852;BME280;24605;50.092;9.182;2023-05-23T00:30:29;97721.38;;;15.54;100.00
38852;BME280;24605;50.092;9.182;2023-05-23T00:32:55;97716.47;;;15.64;100.00
38852;BME280;24605;50.092;9.182;2023-05-23T00:35:23;97717.72;;;15.55;100.00
38852;BME280;24605;50.092;9.182;2023-05-23T00:37:49;97723.84;;;15.55;100.00
38852;BME280;24605;50.092;9.182;2023-05-23T00:40:16;97717.09;;;15.59;100.00
38852;BME280;24605;50.092;9.182;2023-05-23T00:42:42;97723.78;;;15.62;100.00
38852;BME280;24605;50.092;9.182;2023-05-23T00:45:10;97717.69;;;15.68;100.00
38852;BME280;24605;50.092;9.182;2023-05-23T00:47:38;97721.59;;;15.59;100.00
38852;BME280;24605;50.092;9.182;2023-05-23T00:50:06;97717.09;;;15.52;100.00
38852;BME280;24605;50.092;9.182;2023-05-23T00:52:33;97724.44;;;15.37;100.00
38852;BME280;24605;50.092;9.182;2023-05-23T00:55:00;97727.88;;;15.44;100.00
38852;BME280;24605;50.092;9.182;2023-05-23T00:57:26;97718.16;;;15.31;100.00
38852;BME280;24605;50.092;9.182;2023-05-23T00:59:53;97720.41;;;15.41;100.00
38852;BME280;24605;50.092;9.182;2023-05-23T01:02:20;97723.03;;;15.41;100.00
38852;BME280;24605;50.092;9.182;2023-05-23T01:04:48;97728.28;;;15.48;100.00
38852;BME280;24605;50.092;9.182;2023-05-23T01:07:18;97729.72;;;15.50;100.00
38852;BME280;24605;50.092;9.182;2023-05-23T01:09:45;97728.09;;;15.49;100.00
38852;BME280;24605;50.092;9.182;2023-05-23T01:12:17;97736.22;;;15.48;100.00
38852;BME280;24605;50.092;9.182;2023-05-23T01:14:49;97737.03;;;15.42;100.00
38852;BME280;24605;50.092;9.182;2023-05-23T01:17:20;97732.38;;;15.44;100.00
38852;BME280;24605;50.092;9.182;2023-05-23T01:19:58;97737.66;;;15.37;100.00
38852;BME280;24605;50.092;9.182;2023-05-23T01:22:37;97736.25;;;15.41;100.00
38852;BME280;24605;50.092;9.182;2023-05-23T01:25:13;97741.72;;;15.40;100.00
38852;BME280;24605;50.092;9.182;2023-05-23T01:27:52;97709.66;;;15.16;100.00
38852;BME280;24605;50.092;9.182;2023-05-23T01:30:20;97747.22;;;15.31;100.00
38852;BME280;24605;50.092;9.182;2023-05-23T01:32:50;97755.75;;;15.27;100.00
38852;BME280;24605;50.092;9.182;2023-05-23T01:35:22;97759.19;;;15.34;100.00
38852;BME280;24605;50.092;9.182;2023-05-23T01:37:49;97747.03;;;15.33;100.00
38852;BME280;24605;50.092;9.182;2023-05-23T01:40:15;97756.16;;;15.30;100.00
38852;BME280;24605;50.092;9.182;2023-05-23T01:42:42;97756.38;;;15.42;100.00
38852;BME280;24605;50.092;9.182;2023-05-23T01:45:11;97755.53;;;15.48;100.00
38852;BME280;24605;50.092;9.182;2023-05-23T01:47:40;97716.38;;;15.05;100.00
38852;BME280;24605;50.092;9.182;2023-05-23T01:50:09;97686.31;;;14.99;100.00
38852;BME280;24605;50.092;9.182;2023-05-23T01:52:36;97748.22;;;15.30;100.00
38852;BME280;24605;50.092;9.182;2023-05-23T01:55:05;97749.28;;;15.29;100.00
38852;BME280;24605;50.092;9.182;2023-05-23T01:57:35;97750.28;;;15.28;100.00
38852;BME280;24605;50.092;9.182;2023-05-23T02:00:02;97746.00;;;15.34;100.00
38852;BME280;24605;50.092;9.182;2023-05-23T02:02:31;97751.69;;;15.31;100.00
38852;BME280;24605;50.092;9.182;2023-05-23T02:04:58;97747.03;;;15.33;100.00
38852;BME280;24605;50.092;9.182;2023-05-23T02:07:24;97742.16;;;15.37;100.00
38852;BME280;24605;50.092;9.182;2023-05-23T02:09:51;97743.56;;;15.46;100.00
38852;BME280;24605;50.092;9.182;2023-05-23T02:12:17;97743.97;;;15.43;100.00
38852;BME280;24605;50.092;9.182;2023-05-23T02:14:44;97745.38;;;15.45;100.00
38852;BME280;24605;50.092;9.182;2023-05-23T02:17:11;97746.00;;;15.41;100.00
38852;BME280;24605;50.092;9.182;2023-05-23T02:19:40;97749.03;;;15.51;100.00
38852;BME280;24605;50.092;9.182;2023-05-23T02:22:07;97756.75;;;15.32;100.00
38852;BME280;24605;50.092;9.182;2023-05-23T02:24:33;97761.22;;;15.12;100.00
38852;BME280;24605;50.092;9.182;2023-05-23T02:27:00;97606.44;;;14.03;100.00
38852;BME280;24605;50.092;9.182;2023-05-23T02:29:27;97762.22;;;14.91;100.00
38852;BME280;24605;50.092;9.182;2023-05-23T02:31:54;97759.59;;;14.91;100.00
38852;BME280;24605;50.092;9.182;2023-05-23T02:34:21;97761.81;;;14.87;100.00
38852;BME280;24605;50.092;9.182;2023-05-23T02:36:49;97770.16;;;14.91;100.00
38852;BME280;24605;50.092;9.182;2023-05-23T02:39:16;97768.53;;;15.03;100.00
38852;BME280;24605;50.092;9.182;2023-05-23T02:41:43;97769.56;;;15.02;100.00
38852;BME280;24605;50.092;9.182;2023-05-23T02:44:12;97780.94;;;15.02;100.00
38852;BME280;24605;50.092;9.182;2023-05-23T02:46:39;97784.38;;;15.03;100.00
38852;BME280;24605;50.092;9.182;2023-05-23T02:49:05;97786.81;;;15.04;100.00
38852;BME280;24605;50.092;9.182;2023-05-23T02:51:31;97779.91;;;15.03;100.00
38852;BME280;24605;50.092;9.182;2023-05-23T02:53:59;97781.56;;;15.18;100.00
38852;BME280;24605;50.092;9.182;2023-05-23T02:56:26;97775.88;;;15.28;100.00
38852;BME280;24605;50.092;9.182;2023-05-23T02:58:52;97783.78;;;15.28;100.00
38852;BME280;24605;50.092;9.182;2023-05-23T03:01:19;97788.03;;;15.22;100.00
38852;BME280;24605;50.092;9.182;2023-05-23T03:03:45;97790.50;;;15.24;100.00
38852;BME280;24605;50.092;9.182;2023-05-23T03:06:12;97785.41;;;15.22;100.00
38852;BME280;24605;50.092;9.182;2023-05-23T03:08:38;97785.22;;;15.17;100.00
38852;BME280;24605;50.092;9.182;2023-05-23T03:11:06;97783.19;;;15.12;100.00
38852;BME280;24605;50.092;9.182;2023-05-23T03:13:33;97780.34;;;15.00;100.00
38852;BME280;24605;50.092;9.182;2023-05-23T03:15:59;97777.88;;;14.99;100.00
38852;BME280;24605;50.092;9.182;2023-05-23T03:18:26;97770.34;;;14.89;100.00
38852;BME280;24605;50.092;9.182;2023-05-23T03:20:52;97781.94;;;14.88;100.00
38852;BME280;24605;50.092;9.182;2023-05-23T03:23:19;97796.53;;;14.91;100.00
38852;BME280;24605;50.092;9.182;2023-05-23T03:25:45;97797.75;;;14.81;100.00
38852;BME280;24605;50.092;9.182;2023-05-23T03:28:13;97790.25;;;14.92;100.00
38852;BME280;24605;50.092;9.182;2023-05-23T03:30:40;97792.47;;;14.88;100.00
38852;BME280;24605;50.092;9.182;2023-05-23T03:33:06;97791.25;;;14.91;100.00
38852;BME280;24605;50.092;9.182;2023-05-23T03:35:33;97781.09;;;14.74;100.00
38852;BME280;24605;50.092;9.182;2023-05-23T03:37:59;97796.72;;;14.82;100.00
38852;BME280;24605;50.092;9.182;2023-05-23T03:40:26;97794.94;;;14.90;100.00
38852;BME280;24605;50.092;9.182;2023-05-23T03:43:00;97805.06;;;14.79;100.00
38852;BME280;24605;50.092;9.182;2023-05-23T03:45:29;97793.91;;;14.91;100.00
38852;BME280;24605;50.092;9.182;2023-05-23T03:47:55;97800.19;;;14.83;100.00
38852;BME280;24605;50.092;9.182;2023-05-23T03:50:22;97809.53;;;14.85;100.00
38852;BME280;24605;50.092;9.182;2023-05-23T03:52:49;97803.03;;;14.81;100.00
38852;BME280;24605;50.092;9.182;2023-05-23T03:55:15;97816.59;;;14.71;100.00
38852;BME280;24605;50.092;9.182;2023-05-23T03:57:46;97812.50;;;14.62;100.00
38852;BME280;24605;50.092;9.182;2023-05-23T04:00:13;97824.31;;;14.66;100.00
38852;BME280;24605;50.092;9.182;2023-05-23T04:02:41;97824.81;;;14.48;100.00
38852;BME280;24605;50.092;9.182;2023-05-23T04:05:08;97824.00;;;14.48;100.00
38852;BME280;24605;50.092;9.182;2023-05-23T04:07:34;97824.00;;;14.48;100.00
38852;BME280;24605;50.092;9.182;2023-05-23T04:10:01;97823.16;;;14.34;100.00
38852;BME280;24605;50.092;9.182;2023-05-23T04:12:27;97823.56;;;14.37;100.00
38852;BME280;24605;50.092;9.182;2023-05-23T04:14:55;97838.97;;;14.34;100.00
38852;BME280;24605;50.092;9.182;2023-05-23T04:17:22;97828.63;;;14.32;100.00
38852;BME280;24605;50.092;9.182;2023-05-23T04:19:50;97839.81;;;14.41;100.00
38852;BME280;24605;50.092;9.182;2023-05-23T04:22:16;97838.16;;;14.40;100.00
38852;BME280;24605;50.092;9.182;2023-05-23T04:24:43;97840.59;;;14.35;100.00
38852;BME280;24605;50.092;9.182;2023-05-23T04:27:09;97851.31;;;14.26;100.00
38852;BME280;24605;50.092;9.182;2023-05-23T04:29:36;97854.31;;;14.23;100.00
38852;BME280;24605;50.092;9.182;2023-05-23T04:32:02;97853.81;;;14.06;100.00
38852;BME280;24605;50.092;9.182;2023-05-23T04:34:30;97856.44;;;14.00;100.00
38852;BME280;24605;50.092;9.182;2023-05-23T04:36:59;97854.84;;;14.12;100.00
38852;BME280;24605;50.092;9.182;2023-05-23T04:39:26;97860.72;;;14.07;100.00
38852;BME280;24605;50.092;9.182;2023-05-23T04:41:53;97859.38;;;14.18;100.00
38852;BME280;24605;50.092;9.182;2023-05-23T04:44:20;97863.56;;;14.06;100.00
38852;BME280;24605;50.092;9.182;2023-05-23T04:46:47;97864.34;;;14.06;100.00
38852;BME280;24605;50.092;9.182;2023-05-23T04:49:14;97859.22;;;13.91;100.00
38852;BME280;24605;50.092;9.182;2023-05-23T04:51:40;97861.31;;;13.74;100.00
38852;BME280;24605;50.092;9.182;2023-05-23T04:54:09;97868.97;;;13.98;100.00
38852;BME280;24605;50.092;9.182;2023-05-23T04:56:35;97873.41;;;13.90;100.00
38852;BME280;24605;50.092;9.182;2023-05-23T04:59:01;97883.31;;;13.88;100.00
38852;BME280;24605;50.092;9.182;2023-05-23T05:01:28;97876.03;;;13.90;100.00
38852;BME280;24605;50.092;9.182;2023-05-23T05:03:55;97880.53;;;13.97;100.00
38852;BME280;24605;50.092;9.182;2023-05-23T05:06:22;97880.16;;;14.06;100.00
38852;BME280;24605;50.092;9.182;2023-05-23T05:08:48;97886.09;;;13.80;100.00
38852;BME280;24605;50.092;9.182;2023-05-23T05:11:16;97878.97;;;13.81;100.00
38852;BME280;24605;50.092;9.182;2023-05-23T05:13:43;97882.25;;;13.83;100.00
38852;BME280;24605;50.092;9.182;2023-05-23T05:16:09;97886.75;;;14.24;100.00
38852;BME280;24605;50.092;9.182;2023-05-23T05:18:37;97891.28;;;14.30;100.00
38852;BME280;24605;50.092;9.182;2023-05-23T05:21:04;97896.34;;;14.32;100.00
38852;BME280;24605;50.092;9.182;2023-05-23T05:23:32;97894.47;;;14.19;100.00
38852;BME280;24605;50.092;9.182;2023-05-23T05:25:58;97892.50;;;14.28;100.00
38852;BME280;24605;50.092;9.182;2023-05-23T05:28:27;97884.44;;;13.79;100.00
38852;BME280;24605;50.092;9.182;2023-05-23T05:30:53;97891.63;;;14.20;100.00
38852;BME280;24605;50.092;9.182;2023-05-23T05:33:20;97904.06;;;14.26;100.00
38852;BME280;24605;50.092;9.182;2023-05-23T05:35:47;97897.31;;;14.24;100.00
38852;BME280;24605;50.092;9.182;2023-05-23T05:38:14;97909.06;;;14.21;100.00
38852;BME280;24605;50.092;9.182;2023-05-23T05:40:40;97912.53;;;14.22;100.00
38852;BME280;24605;50.092;9.182;2023-05-23T05:43:07;97909.91;;;14.29;100.00
38852;BME280;24605;50.092;9.182;2023-05-23T05:45:35;97912.38;;;14.30;100.00
38852;BME280;24605;50.092;9.182;2023-05-23T05:48:02;97902.84;;;14.29;100.00
38852;BME280;24605;50.092;9.182;2023-05-23T05:50:28;97915.66;;;14.39;100.00
38852;BME280;24605;50.092;9.182;2023-05-23T05:52:55;97921.88;;;14.24;100.00
38852;BME280;24605;50.092;9.182;2023-05-23T05:55:21;97917.94;;;14.42;100.00
38852;BME280;24605;50.092;9.182;2023-05-23T05:57:48;97923.66;;;14.17;100.00
38852;BME280;24605;50.092;9.182;2023-05-23T06:00:15;97927.56;;;14.28;100.00
38852;BME280;24605;50.092;9.182;2023-05-23T06:02:45;97925.53;;;14.23;100.00
38852;BME280;24605;50.092;9.182;2023-05-23T06:05:13;97930.16;;;14.15;100.00
38852;BME280;24605;50.092;9.182;2023-05-23T06:07:40;97936.22;;;14.15;100.00
38852;BME280;24605;50.092;9.182;2023-05-23T06:10:08;97935.91;;;13.75;100.00
38852;BME280;24605;50.092;9.182;2023-05-23T06:12:36;97934.16;;;14.10;100.00
38852;BME280;24605;50.092;9.182;2023-05-23T06:15:04;97940.28;;;14.18;100.00
38852;BME280;24605;50.092;9.182;2023-05-23T06:17:30;97934.81;;;14.19;100.00
38852;BME280;24605;50.092;9.182;2023-05-23T06:19:58;97947.47;;;14.02;100.00
38852;BME280;24605;50.092;9.182;2023-05-23T06:22:25;97942.53;;;13.92;100.00
38852;BME280;24605;50.092;9.182;2023-05-23T06:24:51;97949.53;;;13.78;100.00
38852;BME280;24605;50.092;9.182;2023-05-23T06:27:18;97965.13;;;13.80;100.00
38852;BME280;24605;50.092;9.182;2023-05-23T06:29:44;97950.69;;;13.76;100.00
38852;BME280;24605;50.092;9.182;2023-05-23T06:32:11;97944.63;;;14.04;100.00
38852;BME280;24605;50.092;9.182;2023-05-23T06:34:37;97954.44;;;14.10;100.00
38852;BME280;24605;50.092;9.182;2023-05-23T06:37:05;97950.34;;;14.07;100.00
38852;BME280;24605;50.092;9.182;2023-05-23T06:39:31;97950.25;;;14.22;100.00
38852;BME280;24605;50.092;9.182;2023-05-23T06:41:58;97953.94;;;14.28;100.00
38852;BME280;24605;50.092;9.182;2023-05-23T06:44:25;97953.56;;;14.31;100.00
38852;BME280;24605;50.092;9.182;2023-05-23T06:46:51;97955.38;;;14.31;100.00
38852;BME280;24605;50.092;9.182;2023-05-23T06:49:21;97961.16;;;14.13;100.00
38852;BME280;24605;50.092;9.182;2023-05-23T06:51:48;97964.28;;;14.30;100.00
38852;BME280;24605;50.092;9.182;2023-05-23T06:54:15;97959.22;;;14.63;100.00
38852;BME280;24605;50.092;9.182;2023-05-23T06:56:42;97958.81;;;14.60;100.00
38852;BME280;24605;50.092;9.182;2023-05-23T06:59:08;97952.63;;;14.74;100.00
38852;BME280;24605;50.092;9.182;2023-05-23T07:01:35;97963.03;;;14.89;100.00
38852;BME280;24605;50.092;9.182;2023-05-23T07:04:02;97960.63;;;14.87;100.00
38852;BME280;24605;50.092;9.182;2023-05-23T07:06:28;97961.66;;;14.93;100.00
38852;BME280;24605;50.092;9.182;2023-05-23T07:08:55;97962.41;;;14.80;100.00
38852;BME280;24605;50.092;9.182;2023-05-23T07:11:23;97959.06;;;15.07;100.00
38852;BME280;24605;50.092;9.182;2023-05-23T07:13:50;97962.75;;;15.26;100.00
38852;BME280;24605;50.092;9.182;2023-05-23T07:16:17;97958.94;;;15.35;100.00
38852;BME280;24605;50.092;9.182;2023-05-23T07:18:43;97960.19;;;15.52;100.00
38852;BME280;24605;50.092;9.182;2023-05-23T07:21:10;97960.00;;;15.61;100.00
38852;BME280;24605;50.092;9.182;2023-05-23T07:23:36;97959.97;;;15.41;100.00
38852;BME280;24605;50.092;9.182;2023-05-23T07:26:03;97969.38;;;15.70;100.00
38852;BME280;24605;50.092;9.182;2023-05-23T07:28:30;97962.72;;;15.88;100.00
38852;BME280;24605;50.092;9.182;2023-05-23T07:30:57;97958.03;;;15.96;100.00
38852;BME280;24605;50.092;9.182;2023-05-23T07:33:23;97954.13;;;15.59;100.00
38852;BME280;24605;50.092;9.182;2023-05-23T07:35:50;97952.56;;;16.05;100.00
38852;BME280;24605;50.092;9.182;2023-05-23T07:38:16;97959.22;;;16.34;100.00
38852;BME280;24605;50.092;9.182;2023-05-23T07:40:43;97964.09;;;16.51;100.00
38852;BME280;24605;50.092;9.182;2023-05-23T07:43:09;97973.88;;;16.57;100.00
38852;BME280;24605;50.092;9.182;2023-05-23T07:45:37;97962.38;;;16.83;100.00
38852;BME280;24605;50.092;9.182;2023-05-23T07:48:04;97976.34;;;16.38;100.00
38852;BME280;24605;50.092;9.182;2023-05-23T07:50:30;97975.09;;;16.48;100.00
38852;BME280;24605;50.092;9.182;2023-05-23T07:52:56;97951.03;;;16.69;100.00
38852;BME280;24605;50.092;9.182;2023-05-23T07:55:23;97975.50;;;16.44;100.00
38852;BME280;24605;50.092;9.182;2023-05-23T07:57:49;97978.97;;;16.25;100.00
38852;BME280;24605;50.092;9.182;2023-05-23T08:00:17;97975.94;;;16.21;100.00
38852;BME280;24605;50.092;9.182;2023-05-23T08:02:45;97975.47;;;16.58;100.00
38852;BME280;24605;50.092;9.182;2023-05-23T08:05:12;97981.00;;;16.23;100.00
38852;BME280;24605;50.092;9.182;2023-05-23T08:07:38;97978.16;;;16.44;100.00
38852;BME280;24605;50.092;9.182;2023-05-23T08:10:06;97978.19;;;16.24;100.00
38852;BME280;24605;50.092;9.182;2023-05-23T08:12:32;97986.53;;;16.35;100.00
38852;BME280;24605;50.092;9.182;2023-05-23T08:14:59;97980.63;;;16.33;100.00
38852;BME280;24605;50.092;9.182;2023-05-23T08:17:25;97982.84;;;16.16;100.00
38852;BME280;24605;50.092;9.182;2023-05-23T08:19:53;97983.03;;;16.34;100.00
38852;BME280;24605;50.092;9.182;2023-05-23T08:22:19;97981.38;;;15.66;100.00
38852;BME280;24605;50.092;9.182;2023-05-23T08:24:46;97991.53;;;15.69;100.00
38852;BME280;24605;50.092;9.182;2023-05-23T08:27:12;97995.34;;;15.46;100.00
38852;BME280;24605;50.092;9.182;2023-05-23T08:29:39;97982.28;;;15.25;100.00
38852;BME280;24605;50.092;9.182;2023-05-23T08:32:06;97999.22;;;15.57;100.00
38852;BME280;24605;50.092;9.182;2023-05-23T08:34:32;97995.16;;;15.55;100.00
38852;BME280;24605;50.092;9.182;2023-05-23T08:37:00;98001.84;;;15.44;100.00
38852;BME280;24605;50.092;9.182;2023-05-23T08:39:26;97994.59;;;15.66;100.00
38852;BME280;24605;50.092;9.182;2023-05-23T08:41:53;97992.53;;;15.61;100.00
38852;BME280;24605;50.092;9.182;2023-05-23T08:44:19;97999.47;;;15.62;100.00
38852;BME280;24605;50.092;9.182;2023-05-23T08:46:46;98000.31;;;15.76;100.00
38852;BME280;24605;50.092;9.182;2023-05-23T08:49:16;98006.38;;;15.63;100.00
38852;BME280;24605;50.092;9.182;2023-05-23T08:51:43;98007.88;;;15.93;100.00
38852;BME280;24605;50.092;9.182;2023-05-23T08:54:12;98010.31;;;16.14;100.00
38852;BME280;24605;50.092;9.182;2023-05-23T08:56:39;97981.44;;;16.00;100.00
38852;BME280;24605;50.092;9.182;2023-05-23T08:59:07;97996.28;;;16.41;100.00
38852;BME280;24605;50.092;9.182;2023-05-23T09:01:34;98002.38;;;16.21;100.00
38852;BME280;24605;50.092;9.182;2023-05-23T09:04:01;98007.22;;;16.58;100.00
38852;BME280;24605;50.092;9.182;2023-05-23T09:06:29;98006.44;;;16.24;100.00
38852;BME280;24605;50.092;9.182;2023-05-23T09:08:56;98012.97;;;16.21;100.00
38852;BME280;24605;50.092;9.182;2023-05-23T09:11:24;98012.34;;;15.99;100.00
38852;BME280;24605;50.092;9.182;2023-05-23T09:13:50;98009.72;;;16.12;100.00
38852;BME280;24605;50.092;9.182;2023-05-23T09:16:17;98011.94;;;16.09;100.00
38852;BME280;24605;50.092;9.182;2023-05-23T09:18:45;98012.34;;;15.86;100.00
38852;BME280;24605;50.092;9.182;2023-05-23T09:21:12;98016.81;;;15.85;100.00
38852;BME280;24605;50.092;9.182;2023-05-23T09:23:41;98015.19;;;16.11;100.00
38852;BME280;24605;50.092;9.182;2023-05-23T09:26:09;98016.22;;;16.43;100.00
38852;BME280;24605;50.092;9.182;2023-05-23T09:28:41;98013.78;;;16.08;100.00
38852;BME280;24605;50.092;9.182;2023-05-23T09:31:08;98001.78;;;16.26;100.00
38852;BME280;24605;50.092;9.182;2023-05-23T09:33:44;98017.44;;;16.34;100.00
38852;BME280;24605;50.092;9.182;2023-05-23T09:36:12;98024.97;;;16.31;100.00
38852;BME280;24605;50.092;9.182;2023-05-23T09:38:39;98021.91;;;16.40;100.00
38852;BME280;24605;50.092;9.182;2023-05-23T09:41:06;98018.84;;;16.64;100.00
38852;BME280;24605;50.092;9.182;2023-05-23T09:43:33;98018.22;;;16.68;100.00
38852;BME280;24605;50.092;9.182;2023-05-23T09:46:06;98015.69;;;17.07;100.00
38852;BME280;24605;50.092;9.182;2023-05-23T09:48:32;97975.00;;;16.95;100.00
38852;BME280;24605;50.092;9.182;2023-05-23T09:51:03;98019.53;;;17.63;100.00
38852;BME280;24605;50.092;9.182;2023-05-23T09:53:29;98016.81;;;17.77;100.00
38852;BME280;24605;50.092;9.182;2023-05-23T09:55:57;98024.81;;;17.63;100.00
38852;BME280;24605;50.092;9.182;2023-05-23T09:58:26;98023.41;;;17.15;100.00
38852;BME280;24605;50.092;9.182;2023-05-23T10:00:54;98015.44;;;17.22;100.00
38852;BME280;24605;50.092;9.182;2023-05-23T10:03:26;98006.97;;;17.00;100.00
38852;BME280;24605;50.092;9.182;2023-05-23T10:05:59;98017.59;;;16.66;100.00
38852;BME280;24605;50.092;9.182;2023-05-23T10:08:33;98019.06;;;16.55;100.00
38852;BME280;24605;50.092;9.182;2023-05-23T10:11:53;98019.06;;;16.28;100.00
38852;BME280;24605;50.092;9.182;2023-05-23T10:14:37;98033.13;;;16.29;100.00
38852;BME280;24605;50.092;9.182;2023-05-23T10:17:07;98031.06;;;16.31;100.00
38852;BME280;24605;50.092;9.182;2023-05-23T10:19:42;98028.44;;;16.11;100.00
38852;BME280;24605;50.092;9.182;2023-05-23T10:22:11;98027.19;;;15.93;100.00
38852;BME280;24605;50.092;9.182;2023-05-23T10:24:40;98050.50;;;15.70;100.00
38852;BME280;24605;50.092;9.182;2023-05-23T10:27:07;98039.09;;;15.69;100.00
38852;BME280;24605;50.092;9.182;2023-05-23T10:29:34;98036.47;;;15.69;100.00
38852;BME280;24605;50.092;9.182;2023-05-23T10:32:02;98039.41;;;15.94;100.00
38852;BME280;24605;50.092;9.182;2023-05-23T10:34:35;98036.50;;;15.82;100.00
38852;BME280;24605;50.092;9.182;2023-05-23T10:37:05;98048.56;;;16.12;100.00
38852;BME280;24605;50.092;9.182;2023-05-23T10:39:39;98053.88;;;16.32;100.00
38852;BME280;24605;50.092;9.182;2023-05-23T10:42:11;98052.66;;;16.21;100.00
38852;BME280;24605;50.092;9.182;2023-05-23T10:44:40;98051.59;;;15.95;100.00
38852;BME280;24605;50.092;9.182;2023-05-23T10:47:07;98052.66;;;16.28;100.00
38852;BME280;24605;50.092;9.182;2023-05-23T10:49:37;98050.00;;;16.48;100.00
38852;BME280;24605;50.092;9.182;2023-05-23T10:52:06;98046.34;;;16.49;100.00
38852;BME280;24605;50.092;9.182;2023-05-23T10:54:36;98034.53;;;16.52;100.00
38852;BME280;24605;50.092;9.182;2023-05-23T10:57:09;98060.59;;;16.35;100.00
38852;BME280;24605;50.092;9.182;2023-05-23T10:59:37;98057.53;;;16.38;100.00
38852;BME280;24605;50.092;9.182;2023-05-23T11:02:11;98052.84;;;16.53;100.00
38852;BME280;24605;50.092;9.182;2023-05-23T11:04:39;98048.78;;;16.37;100.00
38852;BME280;24605;50.092;9.182;2023-05-23T11:07:27;98058.97;;;16.54;100.00
38852;BME280;24605;50.092;9.182;2023-05-23T11:10:07;98068.31;;;16.50;100.00
38852;BME280;24605;50.092;9.182;2023-05-23T11:12:39;98057.75;;;16.70;100.00
38852;BME280;24605;50.092;9.182;2023-05-23T11:15:21;98050.72;;;17.16;100.00
38852;BME280;24605;50.092;9.182;2023-05-23T11:17:49;98054.25;;;16.69;100.00
38852;BME280;24605;50.092;9.182;2023-05-23T11:20:17;98061.16;;;16.84;100.00
38852;BME280;24605;50.092;9.182;2023-05-23T11:22:52;98057.72;;;16.56;100.00
38852;BME280;24605;50.092;9.182;2023-05-23T11:25:38;98065.50;;;16.51;100.00
38852;BME280;24605;50.092;9.182;2023-05-23T11:28:05;98061.81;;;16.39;100.00
38852;BME280;24605;50.092;9.182;2023-05-23T11:30:32;98063.66;;;16.38;100.00
38852;BME280;24605;50.092;9.182;2023-05-23T11:33:08;98055.47;;;16.06;100.00
38852;BME280;24605;50.092;9.182;2023-05-23T11:35:37;98071.50;;;15.91;100.00
38852;BME280;24605;50.092;9.182;2023-05-23T11:38:04;98074.53;;;15.81;100.00
38852;BME280;24605;50.092;9.182;2023-05-23T11:40:32;98072.13;;;15.93;100.00
38852;BME280;24605;50.092;9.182;2023-05-23T11:43:02;98065.28;;;16.12;100.00
38852;BME280;24605;50.092;9.182;2023-05-23T11:45:29;98070.78;;;16.24;100.00
38852;BME280;24605;50.092;9.182;2023-05-23T11:47:57;98072.00;;;16.35;100.00
38852;BME280;24605;50.092;9.182;2023-05-23T11:50:23;98065.66;;;16.50;100.00
38852;BME280;24605;50.092;9.182;2023-05-23T11:52:50;98074.66;;;16.22;100.00
38852;BME280;24605;50.092;9.182;2023-05-23T11:55:17;98061.81;;;16.52;100.00
38852;BME280;24605;50.092;9.182;2023-05-23T11:57:45;98080.94;;;16.34;100.00
38852;BME280;24605;50.092;9.182;2023-05-23T12:00:14;98074.03;;;16.47;100.00
38852;BME280;24605;50.092;9.182;2023-05-23T12:02:41;98068.94;;;16.65;100.00
38852;BME280;24605;50.092;9.182;2023-05-23T12:05:10;98069.94;;;16.77;100.00
38852;BME280;24605;50.092;9.182;2023-05-23T12:07:39;98081.97;;;16.47;100.00
38852;BME280;24605;50.092;9.182;2023-05-23T12:10:07;98078.47;;;16.66;100.00
38852;BME280;24605;50.092;9.182;2023-05-23T12:12:34;98081.91;;;17.14;100.00
38852;BME280;24605;50.092;9.182;2023-05-23T12:15:03;98081.53;;;17.03;100.00
38852;BME280;24605;50.092;9.182;2023-05-23T12:17:30;98082.56;;;16.89;100.00
38852;BME280;24605;50.092;9.182;2023-05-23T12:19:57;98081.31;;;17.12;100.00
38852;BME280;24605;50.092;9.182;2023-05-23T12:22:23;98091.91;;;16.91;100.00
38852;BME280;24605;50.092;9.182;2023-05-23T12:24:52;98089.47;;;17.17;100.00
38852;BME280;24605;50.092;9.182;2023-05-23T12:27:18;98086.47;;;17.52;98.74
38852;BME280;24605;50.092;9.182;2023-05-23T12:29:49;98083.69;;;17.40;98.64
38852;BME280;24605;50.092;9.182;2023-05-23T12:32:17;98094.31;;;17.79;95.93
38852;BME280;24605;50.092;9.182;2023-05-23T12:34:44;98093.84;;;17.89;91.66
38852;BME280;24605;50.092;9.182;2023-05-23T12:37:12;98093.38;;;17.60;96.04
38852;BME280;24605;50.092;9.182;2023-05-23T12:39:38;98084.28;;;17.81;95.39
38852;BME280;24605;50.092;9.182;2023-05-23T12:42:08;98089.81;;;17.79;95.04
38852;BME280;24605;50.092;9.182;2023-05-23T12:44:35;98100.81;;;17.83;94.27
38852;BME280;24605;50.092;9.182;2023-05-23T12:47:02;98104.13;;;16.92;99.11
38852;BME280;24605;50.092;9.182;2023-05-23T12:49:30;98098.03;;;17.12;100.00
38852;BME280;24605;50.092;9.182;2023-05-23T12:51:56;98104.53;;;16.89;99.17
38852;BME280;24605;50.092;9.182;2023-05-23T12:54:23;98099.75;;;17.45;94.83